Time;durP1;ratioP1;P1;durP2;ratioP2;P2;SDS_P1;SDS_P2;PMS_P1;PMS_P2;Temp;Humidity;BMP_temperature;BMP_pressure;BME280_temperature;BME280_humidity;BME280_pressure;Samples;Min_cycle;Max_cycle;Signal;HPM_P1;HPM_P2
2023/09/07 00:01:07;;;;;;;2.88;2.63;;;;;;;18.07;62.94;100973.41;20717201;28;20197;-80
2023/09/07 00:11:10;;;;;;;3.75;2.72;;;;;;;18.45;61.21;100972.78;20750177;28;20304;-77
2023/09/07 00:21:13;;;;;;;3.95;2.90;;;;;;;18.35;61.17;100964.78;20747269;28;20271;-78
2023/09/07 00:31:15;;;;;;;4.97;3.08;;;;;;;18.50;60.93;100970.50;20718143;28;20518;-78
2023/09/07 00:41:18;;;;;;;4.88;2.70;;;;;;;18.56;59.85;100973.91;20727271;28;20240;-77
2023/09/07 00:51:19;;;;;;;4.38;3.13;;;;;;;18.48;59.36;100970.03;20716388;28;20220;-79
2023/09/07 01:01:23;;;;;;;3.20;2.60;;;;;;;18.72;58.28;100956.81;20735900;28;20205;-77
2023/09/07 01:11:25;;;;;;;5.95;2.40;;;;;;;18.09;60.39;100959.63;20709399;28;20229;-78
2023/09/07 01:21:28;;;;;;;5.10;2.90;;;;;;;18.51;58.68;100937.97;20704842;28;20205;-79
2023/09/07 01:31:31;;;;;;;3.00;2.60;;;;;;;18.44;57.88;100928.41;20699002;28;20271;-79
2023/09/07 01:41:34;;;;;;;2.63;2.35;;;;;;;18.32;58.58;100940.72;20697858;28;20244;-79
2023/09/07 01:51:37;;;;;;;3.42;2.58;;;;;;;18.54;58.16;100930.69;20717466;28;20279;-78
2023/09/07 02:01:40;;;;;;;4.28;2.60;;;;;;;17.97;59.87;100929.19;20738051;28;20291;-79
2023/09/07 02:11:43;;;;;;;5.00;2.70;;;;;;;17.84;60.30;100931.25;20758964;28;20229;-78
2023/09/07 02:21:44;;;;;;;5.97;3.08;;;;;;;17.89;60.45;100933.03;20730640;28;20198;-79
2023/09/07 02:31:47;;;;;;;5.22;2.60;;;;;;;17.79;60.59;100930.72;20726207;28;20253;-79
2023/09/07 02:41:49;;;;;;;6.45;3.08;;;;;;;17.68;61.25;100924.69;20771814;28;20228;-79
2023/09/07 02:51:52;;;;;;;5.38;3.05;;;;;;;17.55;61.19;100928.78;20732393;28;20557;-78
2023/09/07 03:01:54;;;;;;;4.13;2.80;;;;;;;17.58;60.46;100923.19;20717622;28;20276;-79
2023/09/07 03:11:57;;;;;;;4.72;2.75;;;;;;;17.23;61.88;100927.84;20707222;28;20626;-79
2023/09/07 03:21:59;;;;;;;5.22;2.83;;;;;;;17.28;61.48;100918.25;20700620;28;20201;-79
2023/09/07 03:32:02;;;;;;;4.93;3.15;;;;;;;16.94;62.99;100926.09;20716461;28;20230;-79
2023/09/07 03:42:04;;;;;;;4.30;3.25;;;;;;;16.84;62.79;100921.75;20698234;28;20240;-77
2023/09/07 03:52:07;;;;;;;6.20;2.85;;;;;;;16.69;62.99;100922.47;20692771;28;20224;-78
2023/09/07 04:02:09;;;;;;;5.60;3.33;;;;;;;16.05;64.96;100933.63;20691231;28;20224;-79
2023/09/07 04:12:12;;;;;;;7.25;3.33;;;;;;;16.57;63.76;100933.84;20715042;28;20231;-78
2023/09/07 04:22:14;;;;;;;4.97;3.35;;;;;;;16.38;63.90;100931.53;20688282;28;20208;-78
2023/09/07 04:32:17;;;;;;;4.95;3.38;;;;;;;16.13;65.22;100935.53;20708209;28;20213;-76
2023/09/07 04:42:18;;;;;;;4.70;4.00;;;;;;;16.54;63.64;100936.56;20704587;28;20247;-78
2023/09/07 04:52:21;;;;;;;6.28;3.42;;;;;;;15.88;66.27;100936.66;20710322;28;20228;-79
2023/09/07 05:02:23;;;;;;;6.47;3.60;;;;;;;16.21;64.22;100928.94;20716771;28;20201;-78
2023/09/07 05:12:26;;;;;;;6.35;3.45;;;;;;;16.02;64.99;100934.31;20697733;28;20218;-79
2023/09/07 05:22:28;;;;;;;5.57;3.83;;;;;;;16.68;61.28;100945.53;20688216;28;20200;-79
2023/09/07 05:32:31;;;;;;;5.45;3.85;;;;;;;16.61;61.84;100939.66;20692843;28;20557;-79
2023/09/07 05:42:33;;;;;;;8.23;3.47;;;;;;;16.70;61.42;100940.34;20692753;28;20259;-79
2023/09/07 05:52:36;;;;;;;5.75;4.03;;;;;;;16.59;63.13;100948.53;20684144;28;20607;-78
2023/09/07 06:02:38;;;;;;;4.53;4.05;;;;;;;16.87;62.60;100954.31;20673590;28;20595;-78
2023/09/07 06:12:41;;;;;;;8.75;4.20;;;;;;;16.93;62.54;100950.03;20685005;28;20221;-78
2023/09/07 06:22:44;;;;;;;11.93;5.53;;;;;;;17.24;62.10;100940.06;20676184;28;20201;-78
2023/09/07 06:32:48;;;;;;;9.27;5.03;;;;;;;17.71;59.44;100949.59;20676640;28;20638;-79
2023/09/07 06:42:50;;;;;;;8.55;5.22;;;;;;;18.06;58.50;100961.19;20693228;28;20697;-79
2023/09/07 06:52:54;;;;;;;6.68;4.80;;;;;;;18.07;58.59;100971.38;20690485;28;20225;-79
2023/09/07 07:02:56;;;;;;;8.00;4.85;;;;;;;18.20;58.85;100967.25;20694531;28;20498;-79
2023/09/07 07:12:59;;;;;;;8.43;4.40;;;;;;;18.57;58.39;100979.25;20677391;28;20576;-79
2023/09/07 07:23:01;;;;;;;7.07;4.60;;;;;;;18.72;58.08;100973.91;20689824;28;20294;-81
2023/09/07 07:33:05;;;;;;;6.68;4.20;;;;;;;19.41;57.55;100975.19;20696396;28;20240;-79
2023/09/07 07:43:09;;;;;;;6.82;4.38;;;;;;;19.11;58.79;100967.13;20716020;28;20248;-79
2023/09/07 07:53:12;;;;;;;7.40;4.15;;;;;;;20.29;54.91;100961.91;20700351;28;20648;-79
2023/09/07 08:03:14;;;;;;;5.03;4.45;;;;;;;20.67;51.10;100958.09;20682598;28;20566;-81
2023/09/07 08:13:17;;;;;;;9.60;5.05;;;;;;;21.28;49.40;100955.03;20676536;28;20221;-82
2023/09/07 08:23:18;;;;;;;6.65;3.90;;;;;;;21.52;49.72;100953.69;20685132;28;20213;-79
2023/09/07 08:33:28;;;;;;;4.10;3.53;;;;;;;22.56;48.23;100955.72;20676522;28;20624;-79
2023/09/07 08:43:31;;;;;;;3.63;3.22;;;;;;;22.74;45.99;100948.88;20699019;28;20230;-79
2023/09/07 08:53:34;;;;;;;5.55;3.33;;;;;;;23.50;42.89;100942.44;20686003;28;20625;-80
2023/09/07 09:03:36;;;;;;;6.25;2.70;;;;;;;23.83;43.58;100932.75;20677744;28;20216;-79
2023/09/07 09:13:41;;;;;;;3.35;2.97;;;;;;;23.76;39.05;100933.56;20698275;28;20234;-81
2023/09/07 09:23:42;;;;;;;5.25;2.78;;;;;;;23.93;40.94;100931.94;20673451;28;20210;-79
2023/09/07 09:33:49;;;;;;;6.65;3.42;;;;;;;24.46;39.57;100931.22;20684075;28;20226;-78
2023/09/07 09:43:52;;;;;;;4.68;3.30;;;;;;;24.43;39.87;100932.03;20672977;28;20228;-78
2023/09/07 09:53:55;;;;;;;5.90;2.95;;;;;;;24.60;39.55;100911.09;20689531;28;20552;-78
2023/09/07 10:03:57;;;;;;;5.90;3.65;;;;;;;24.95;39.33;100911.06;20714909;28;20608;-79
2023/09/07 10:14:03;;;;;;;4.90;3.47;;;;;;;24.92;40.29;100903.28;20734113;28;20701;-78
2023/09/07 10:24:05;;;;;;;6.22;3.20;;;;;;;25.27;39.86;100890.03;20715905;28;20197;-80
2023/09/07 10:34:12;;;;;;;4.82;3.22;;;;;;;25.76;39.73;100876.66;20719353;28;20236;-78
2023/09/07 10:44:13;;;;;;;5.72;3.70;;;;;;;25.85;38.01;100872.06;20695115;28;20241;-78
2023/09/07 10:54:17;;;;;;;12.38;3.95;;;;;;;25.77;38.98;100872.53;20701443;28;20445;-78
2023/09/07 11:04:20;;;;;;;6.50;3.28;;;;;;;26.29;37.67;100862.72;20699903;28;20206;-82
2023/09/07 11:14:29;;;;;;;3.92;3.00;;;;;;;26.17;36.52;100851.66;20721842;28;20221;-78
2023/09/07 11:24:31;;;;;;;4.30;3.10;;;;;;;26.75;35.62;100847.03;20707535;28;20206;-79
2023/09/07 11:34:35;;;;;;;4.32;3.15;;;;;;;26.78;35.24;100851.97;20696570;28;20629;-78
2023/09/07 11:44:36;;;;;;;7.57;3.35;;;;;;;26.99;35.16;100840.19;20710423;28;20754;-78
2023/09/07 11:54:39;;;;;;;4.07;3.00;;;;;;;27.13;36.11;100826.84;20700556;28;20236;-77
2023/09/07 12:04:41;;;;;;;3.72;3.03;;;;;;;27.33;33.94;100814.19;20700224;28;20197;-80
2023/09/07 12:14:45;;;;;;;5.20;3.25;;;;;;;27.50;36.64;100812.31;20710211;28;20221;-77
2023/09/07 12:24:47;;;;;;;6.18;3.67;;;;;;;27.61;37.06;100795.63;20691615;28;20595;-78
2023/09/07 12:34:53;;;;;;;5.97;3.38;;;;;;;27.65;38.38;100786.91;20709263;28;20229;-78
2023/09/07 12:44:55;;;;;;;6.82;3.70;;;;;;;28.18;34.98;100788.97;20684923;28;20579;-78
2023/09/07 12:54:58;;;;;;;5.00;3.47;;;;;;;28.44;35.76;100785.19;20700924;28;20225;-78
2023/09/07 13:05:00;;;;;;;5.80;3.22;;;;;;;28.05;36.81;100767.69;20711213;28;20202;-80
2023/09/07 13:15:03;;;;;;;4.05;3.00;;;;;;;28.36;35.07;100756.81;20695619;28;20304;-78
2023/09/07 13:25:06;;;;;;;6.07;3.63;;;;;;;28.34;34.62;100744.88;20690696;28;20198;-77
2023/09/07 13:35:09;;;;;;;7.68;3.25;;;;;;;28.62;33.95;100726.94;20694476;28;20225;-80
2023/09/07 13:45:11;;;;;;;4.53;3.38;;;;;;;29.10;33.52;100717.66;20698380;28;20510;-83
2023/09/07 13:55:14;;;;;;;7.00;3.28;;;;;;;29.08;33.76;100714.41;20694867;28;20232;-79
2023/09/07 14:05:16;;;;;;;3.50;3.20;;;;;;;28.73;32.64;100704.34;20700955;28;20640;-79
2023/09/07 14:15:19;;;;;;;3.20;2.90;;;;;;;28.26;33.63;100712.34;20699155;28;20231;-77
2023/09/07 14:25:20;;;;;;;4.10;2.95;;;;;;;28.74;30.99;100699.38;20700533;28;20237;-78
2023/09/07 14:35:24;;;;;;;4.95;2.80;;;;;;;28.28;32.35;100709.84;20692778;28;20244;-80
2023/09/07 14:45:25;;;;;;;2.97;2.67;;;;;;;28.33;31.21;100691.94;20682417;28;20313;-78
2023/09/07 14:55:38;;;;;;;3.00;2.50;;;;;;;28.06;30.92;100697.78;20676125;28;20316;-78
2023/09/07 15:05:40;;;;;;;4.57;2.35;;;;;;;28.08;32.03;100688.69;20598241;28;20302;-80
2023/09/07 15:15:43;;;;;;;4.85;2.60;;;;;;;28.39;30.94;100669.91;20624035;28;20233;-79
2023/09/07 15:25:45;;;;;;;3.90;2.42;;;;;;;27.70;32.64;100683.13;20624065;28;20604;-78
2023/09/07 15:35:48;;;;;;;4.18;2.00;;;;;;;27.66;31.71;100665.03;20610684;28;20228;-79
2023/09/07 15:45:50;;;;;;;3.50;2.53;;;;;;;27.41;32.49;100671.22;20610197;28;20203;-79
2023/09/07 15:55:53;;;;;;;5.43;2.63;;;;;;;27.74;33.11;100663.66;20625995;28;20687;-79
2023/09/07 16:05:55;;;;;;;2.53;2.33;;;;;;;27.26;33.79;100661.16;20630755;28;20567;-79
2023/09/07 16:15:58;;;;;;;7.78;3.40;;;;;;;27.33;33.76;100646.56;20637468;28;20257;-78
2023/09/07 16:26:00;;;;;;;4.03;2.80;;;;;;;27.25;31.53;100638.44;20605440;28;20208;-78
2023/09/07 16:36:03;;;;;;;3.50;2.20;;;;;;;27.14;31.86;100644.38;20618900;28;20225;-80
2023/09/07 16:46:05;;;;;;;4.85;2.42;;;;;;;26.92;31.63;100638.09;20612070;28;20206;-78
2023/09/07 16:56:08;;;;;;;3.05;2.10;;;;;;;26.55;32.78;100636.09;20649956;28;20534;-78
2023/09/07 17:06:10;;;;;;;3.35;2.15;;;;;;;26.85;32.68;100637.38;20631733;28;20312;-79
2023/09/07 17:16:13;;;;;;;2.58;2.35;;;;;;;26.43;33.60;100651.09;20618245;28;20215;-81
2023/09/07 17:26:15;;;;;;;3.30;2.10;;;;;;;26.45;32.14;100647.78;20660023;28;20208;-79
2023/09/07 17:36:20;;;;;;;2.45;2.00;;;;;;;25.89;33.19;100655.78;20615832;28;20254;-78
2023/09/07 17:46:23;;;;;;;4.45;2.40;;;;;;;25.70;32.78;100662.13;20612401;28;20211;-78
2023/09/07 17:56:26;;;;;;;3.90;2.95;;;;;;;25.33;32.45;100680.13;20604078;28;20703;-78
2023/09/07 18:06:29;;;;;;;8.00;4.15;;;;;;;25.05;32.62;100686.88;20610966;28;20217;-79
2023/09/07 18:16:39;;;;;;;4.70;2.45;;;;;;;24.90;33.76;100704.22;20616768;28;20232;-77
2023/09/07 18:26:46;;;;;;;6.78;2.75;;;;;;;24.35;38.02;100701.09;20606343;28;20216;-79
2023/09/07 18:36:49;;;;;;;4.25;2.38;;;;;;;23.86;39.30;100716.34;20635842;28;20277;-78
2023/09/07 18:46:51;;;;;;;5.38;2.65;;;;;;;23.70;39.78;100730.31;20623300;28;20222;-78
2023/09/07 18:56:54;;;;;;;6.47;2.95;;;;;;;23.56;41.87;100728.25;20622437;28;20658;-78
2023/09/07 19:06:56;;;;;;;5.78;3.65;;;;;;;23.02;43.45;100738.75;20616017;28;20209;-80
2023/09/07 19:16:59;;;;;;;4.90;4.28;;;;;;;22.66;45.50;100736.94;20620843;28;20226;-79
2023/09/07 19:27:02;;;;;;;8.15;3.85;;;;;;;22.60;46.48;100727.09;20624994;28;20289;-79
2023/09/07 19:37:05;;;;;;;6.63;4.10;;;;;;;22.12;47.80;100736.59;20615122;28;20238;-79
2023/09/07 19:47:09;;;;;;;4.55;3.53;;;;;;;21.66;47.34;100747.66;20617507;28;20238;-78
2023/09/07 19:57:12;;;;;;;4.53;3.85;;;;;;;21.82;47.66;100758.88;20617117;28;20571;-78
2023/09/07 20:07:14;;;;;;;5.63;4.85;;;;;;;21.64;49.40;100772.16;20632988;28;20670;-80
2023/09/07 20:17:17;;;;;;;6.40;3.80;;;;;;;21.38;50.83;100764.53;20630094;28;20228;-79
2023/09/07 20:27:19;;;;;;;7.22;3.88;;;;;;;21.18;51.10;100772.47;20631279;28;20213;-79
2023/09/07 20:37:22;;;;;;;8.35;4.00;;;;;;;20.97;50.61;100767.31;20640809;28;20787;-80
2023/09/07 20:47:24;;;;;;;3.97;3.50;;;;;;;20.89;50.87;100770.47;20631095;28;20500;-81
2023/09/07 20:57:27;;;;;;;4.57;3.80;;;;;;;20.98;49.92;100771.00;20635798;28;20244;-78
2023/09/07 21:07:29;;;;;;;9.10;4.30;;;;;;;21.16;49.85;100763.47;20643825;28;20265;-79
2023/09/07 21:17:32;;;;;;;3.95;3.55;;;;;;;21.05;50.92;100771.06;20627935;28;20218;-80
2023/09/07 21:27:34;;;;;;;6.00;4.00;;;;;;;20.22;53.52;100770.31;20624610;28;20193;-79
2023/09/07 21:37:37;;;;;;;7.50;4.10;;;;;;;20.74;51.16;100766.59;20644525;28;20312;-78
2023/09/07 21:47:39;;;;;;;5.97;4.68;;;;;;;20.38;52.02;100765.25;20650212;28;20289;-78
2023/09/07 21:57:43;;;;;;;4.43;4.00;;;;;;;20.20;53.21;100762.13;20628225;28;20226;-80
2023/09/07 22:07:58;;;;;;;4.50;3.90;;;;;;;20.24;51.90;100765.03;20657533;28;20776;-81
2023/09/07 22:18:10;;;;;;;6.75;4.20;;;;;;;19.96;53.43;100757.66;20682494;28;20225;-80
2023/09/07 22:28:13;;;;;;;5.40;4.18;;;;;;;19.55;55.31;100769.94;20682857;28;20290;-80
2023/09/07 22:38:16;;;;;;;6.30;4.07;;;;;;;19.51;54.62;100763.34;20625768;28;20320;-80
2023/09/07 22:48:18;;;;;;;5.25;4.47;;;;;;;19.53;55.25;100778.91;20641708;28;20220;-81
2023/09/07 22:58:21;;;;;;;6.20;4.60;;;;;;;18.89;57.58;100766.19;20651462;28;20221;-80
2023/09/07 23:08:23;;;;;;;6.15;4.43;;;;;;;19.15;55.63;100764.66;20654286;28;20210;-80
2023/09/07 23:18:26;;;;;;;5.97;4.53;;;;;;;18.93;56.57;100746.31;20655064;28;20218;-80
2023/09/07 23:28:27;;;;;;;7.70;4.63;;;;;;;18.22;59.17;100753.25;20654074;28;20297;-80
2023/09/07 23:38:30;;;;;;;9.45;4.93;;;;;;;18.72;57.97;100754.38;20664781;28;20317;-80
2023/09/07 23:48:32;;;;;;;5.68;4.68;;;;;;;18.69;57.94;100752.31;20659718;28;20202;-80
2023/09/07 23:58:35;;;;;;;7.80;5.30;;;;;;;17.88;61.12;100744.28;20653844;28;20516;-79
